Claymont, Delaware
Current Conditions -  °F | °C
As of 8:51 AM on Thursday 27 Nov 2014 (Local Time) from KILG Reporting Station
Clear Clear  
Wind Chill: -1°   Ceiling: Unl
Heat Index:   Visibility: 10mi
Dew Point: -1°   Wind: 9mph
Humidity: 76%   Direction: 290°WNW
Pressure: 30.05"   Gusts: NA
Location:  39.8°N, 75.46°W
Report Text: KILG 271351Z AUTO 29008KT 10SM CLR 03/M01 A3005 RMK AO2 SLP175 T00281011
Loading
Personal Weather Stations






























Interactive Weather Map New forecast layout! Learn more

10-Day Weather Forecast

Advertisements
Track Severe Weather on mobile